Sao Francisco, Brazil
Current Conditions -  °F | °C
As of 11:30 AM on Wednesday 26 Nov 2014 (Local Time) from SBAU Reporting Station
Broken Clouds Broken Clouds  
Wind Chill: 79°   Ceiling: 900
Heat Index: 82°   Visibility: 6mi
Dew Point: 72°   Wind: 12mph
Humidity: 78%   Direction: 350°N
Pressure: 29.88"   Gusts: NA
Location:  20.36°S, 50.7°W
Report Text: SBAU 261330Z 35010KT 9999 SCT006 BKN009 BKN080 26/22 Q1012
Loading
Personal Weather Stations






























Interactive Weather Map New forecast layout! Learn more

10-Day Weather Forecast

Advertisements
Track Severe Weather on mobile